createdAt,value
2022-08-05T00:04:57.163Z,2.08
2022-08-05T00:09:59.255Z,2.28
2022-08-05T00:15:55.174Z,2.45
2022-08-05T00:20:22.665Z,2.67
2022-08-05T00:25:45.402Z,4.68
2022-08-05T00:30:52.072Z,3.58
2022-08-05T00:36:16.428Z,3.03
2022-08-05T00:41:28.496Z,4.25
2022-08-05T00:46:54.285Z,3.47
2022-08-05T00:52:04.118Z,3.55
2022-08-05T00:57:05.782Z,4.47
2022-08-05T01:02:07.732Z,4.80
2022-08-05T01:07:13.832Z,4.25
2022-08-05T01:12:21.565Z,4.40
2022-08-05T01:17:44.060Z,4.53
2022-08-05T01:23:14.426Z,4.63
2022-08-05T01:28:36.671Z,4.90
2022-08-05T01:33:53.470Z,4.80
2022-08-05T01:39:13.768Z,4.95
2022-08-05T01:49:25.181Z,4.47
2022-08-05T01:54:32.889Z,5.28
2022-08-05T01:59:47.090Z,4.70
2022-08-05T02:04:54.580Z,5.40
2022-08-05T02:10:02.342Z,5.63
2022-08-05T02:15:19.606Z,5.78
2022-08-05T02:25:52.428Z,6.65
2022-08-05T02:31:04.155Z,7.05
2022-08-05T02:36:15.334Z,7.13
2022-08-05T02:41:20.977Z,6.18
2022-08-05T02:46:36.357Z,6.43
2022-08-05T02:52:03.177Z,6.88
2022-08-05T02:58:12.050Z,6.32
2022-08-05T03:03:02.633Z,6.57
2022-08-05T03:08:13.888Z,6.60
2022-08-05T03:13:20.816Z,8.50
2022-08-05T03:18:32.840Z,7.00
2022-08-05T03:23:41.078Z,7.10
2022-08-05T03:28:47.760Z,8.30
2022-08-05T03:33:53.012Z,6.55
2022-08-05T03:38:55.357Z,6.40
2022-08-05T03:44:08.533Z,7.32
2022-08-05T03:49:14.939Z,7.22
2022-08-05T03:55:54.208Z,6.68
2022-08-05T04:00:26.528Z,6.85
2022-08-05T04:05:33.836Z,7.28
2022-08-05T04:10:38.340Z,6.55
2022-08-05T04:15:52.814Z,5.95
2022-08-05T04:21:05.083Z,6.63
2022-08-05T04:26:07.582Z,6.60
2022-08-05T04:31:10.528Z,6.03
2022-08-05T04:36:45.426Z,5.65
2022-08-05T04:41:37.623Z,5.40
2022-08-05T04:46:57.484Z,5.50
2022-08-05T04:52:14.766Z,5.70
2022-08-05T04:57:20.070Z,6.07
2022-08-05T05:02:37.346Z,5.10
2022-08-05T05:07:52.986Z,5.20
2022-08-05T05:12:58.647Z,5.25
2022-08-05T05:18:00.480Z,4.60
2022-08-05T05:23:19.932Z,5.53
2022-08-05T05:28:22.131Z,4.77
2022-08-05T05:33:26.711Z,4.53
2022-08-05T05:38:29.703Z,4.85
2022-08-05T05:43:57.049Z,4.43
2022-08-05T05:48:53.365Z,6.03
2022-08-05T05:53:59.285Z,4.50
2022-08-05T05:59:06.361Z,5.32
2022-08-05T06:04:11.844Z,4.57
2022-08-05T06:09:16.982Z,4.55
2022-08-05T06:14:28.083Z,4.85
2022-08-05T06:19:41.316Z,4.43
2022-08-05T06:24:53.727Z,4.60
2022-08-05T06:30:04.385Z,4.38
2022-08-05T06:36:02.937Z,4.50
2022-08-05T06:40:44.855Z,4.13
2022-08-05T06:46:06.921Z,4.13
2022-08-05T06:51:12.151Z,4.00
2022-08-05T06:56:55.101Z,4.32
2022-08-05T07:02:13.500Z,4.00
2022-08-05T07:07:24.141Z,4.70
2022-08-05T07:12:55.762Z,4.47
2022-08-05T07:18:08.994Z,4.68
2022-08-05T07:23:13.053Z,4.35
2022-08-05T07:28:28.261Z,4.63
2022-08-05T07:33:36.937Z,4.35
2022-08-05T07:38:43.509Z,4.43
2022-08-05T07:43:46.594Z,4.28
2022-08-05T07:49:01.397Z,4.85
2022-08-05T07:54:08.439Z,4.65
2022-08-05T07:59:11.553Z,4.03
2022-08-05T08:04:17.198Z,3.72
2022-08-05T08:09:37.511Z,3.80
2022-08-05T08:14:40.743Z,4.18
2022-08-05T08:20:20.973Z,4.30
2022-08-05T08:25:16.513Z,4.32
2022-08-05T08:30:32.483Z,4.38
2022-08-05T08:35:41.294Z,3.80
2022-08-05T08:40:54.411Z,3.95
2022-08-05T08:45:59.283Z,3.08
2022-08-05T08:52:02.001Z,2.65
2022-08-05T08:56:27.165Z,3.05
2022-08-05T09:01:29.024Z,2.85
2022-08-05T09:06:31.394Z,2.92
2022-08-05T09:11:50.706Z,2.95
2022-08-05T09:16:55.428Z,3.65
2022-08-05T09:22:22.888Z,4.53
2022-08-05T09:28:05.252Z,3.97
2022-08-05T09:33:02.253Z,4.05
2022-08-05T09:38:12.253Z,4.13
2022-08-05T09:43:41.344Z,4.10
2022-08-05T09:48:55.301Z,3.10
2022-08-05T09:54:08.459Z,3.20
2022-08-05T09:59:17.213Z,3.33
2022-08-05T10:04:19.193Z,3.30
2022-08-05T10:09:31.084Z,3.10
2022-08-05T10:14:47.333Z,3.42
2022-08-05T10:20:03.662Z,3.30
2022-08-05T10:25:14.444Z,3.38
2022-08-05T10:31:20.620Z,3.20
2022-08-05T10:35:40.691Z,2.90
2022-08-05T10:40:52.132Z,3.10
2022-08-05T10:46:06.235Z,3.47
2022-08-05T10:51:22.458Z,3.40
2022-08-05T10:56:29.340Z,3.00
2022-08-05T11:01:54.947Z,3.50
2022-08-05T11:07:06.873Z,2.73
2022-08-05T11:12:50.502Z,2.63
2022-08-05T11:18:14.114Z,2.13
2022-08-05T11:28:58.690Z,1.70
2022-08-05T11:34:08.633Z,2.10
2022-08-05T11:39:48.056Z,1.48
2022-08-05T11:44:53.913Z,2.00
2022-08-05T11:50:00.577Z,2.28
2022-08-05T11:55:07.722Z,2.20
2022-08-05T12:00:30.216Z,2.45
2022-08-05T12:05:36.253Z,2.70
2022-08-05T12:10:45.435Z,2.60
2022-08-05T12:15:49.812Z,2.35
2022-08-05T12:20:52.010Z,2.20
2022-08-05T12:25:56.413Z,2.33
2022-08-05T12:31:02.399Z,1.85
2022-08-05T12:36:08.089Z,1.88
2022-08-05T12:41:13.141Z,1.67
2022-08-05T12:46:28.085Z,1.60
2022-08-05T12:52:10.740Z,1.40
2022-08-05T12:57:01.688Z,1.40
2022-08-05T13:02:08.185Z,1.02
2022-08-05T13:07:57.809Z,0.80
2022-08-05T13:12:51.178Z,0.88
2022-08-05T13:17:59.533Z,0.60
2022-08-05T13:23:01.112Z,0.57
2022-08-05T13:28:10.610Z,0.60
2022-08-05T13:33:14.346Z,0.68
2022-08-05T13:38:36.265Z,0.40
2022-08-05T13:43:54.554Z,0.50
2022-08-05T13:49:00.634Z,0.60
2022-08-05T13:54:02.839Z,0.68
2022-08-05T13:59:05.961Z,0.32
2022-08-05T14:04:26.927Z,0.50
2022-08-05T14:09:29.684Z,0.47
2022-08-05T14:14:33.788Z,0.85
2022-08-05T14:19:55.105Z,0.55
2022-08-05T14:24:57.086Z,0.40
2022-08-05T14:29:58.686Z,0.65
2022-08-05T14:35:00.675Z,0.93
2022-08-05T14:40:02.544Z,0.38
2022-08-05T14:45:05.020Z,0.43
2022-08-05T14:50:18.155Z,0.47
2022-08-05T14:55:20.525Z,0.90
2022-08-05T15:00:28.222Z,0.80
2022-08-05T15:06:06.902Z,0.50
2022-08-05T15:10:54.341Z,0.40
2022-08-05T15:15:56.505Z,0.40
2022-08-05T15:20:58.211Z,0.50
2022-08-05T15:26:09.378Z,0.50
2022-08-05T15:31:11.353Z,0.40
2022-08-05T15:36:17.738Z,2.25
2022-08-05T15:41:55.165Z,0.50
2022-08-05T15:46:47.573Z,0.50
2022-08-05T15:52:04.118Z,0.40
2022-08-05T15:57:14.399Z,0.50
2022-08-05T16:02:19.854Z,0.40
2022-08-05T16:07:30.547Z,0.40
2022-08-05T16:12:32.177Z,0.55
2022-08-05T16:17:33.822Z,0.30
2022-08-05T16:22:35.669Z,0.40
2022-08-05T16:28:00.744Z,0.45
2022-08-05T16:33:01.762Z,0.38
2022-08-05T16:38:18.834Z,0.32
2022-08-05T16:43:26.345Z,0.50
2022-08-05T16:48:33.752Z,0.50
2022-08-05T16:59:08.140Z,0.50
2022-08-05T17:04:10.484Z,0.50
2022-08-05T17:09:12.168Z,0.40
2022-08-05T17:14:34.387Z,0.50
2022-08-05T17:19:37.557Z,0.60
2022-08-05T17:24:46.279Z,0.57
2022-08-05T17:29:59.758Z,0.50
2022-08-05T17:35:04.611Z,0.98
2022-08-05T17:40:10.899Z,0.52
2022-08-05T17:45:18.107Z,0.50
2022-08-05T17:50:28.435Z,0.40
2022-08-05T17:55:38.426Z,0.40
2022-08-05T18:00:47.634Z,0.50
2022-08-05T18:05:53.603Z,0.47
2022-08-05T18:10:55.903Z,1.38
2022-08-05T18:15:59.593Z,0.50
2022-08-05T18:21:01.678Z,0.47
2022-08-05T18:26:03.235Z,0.90
2022-08-05T18:31:07.103Z,0.45
2022-08-05T18:36:15.299Z,0.80
2022-08-05T18:41:55.543Z,0.40
2022-08-05T18:46:38.930Z,0.60
2022-08-05T18:52:06.302Z,0.70
2022-08-05T18:57:15.292Z,0.70
2022-08-05T19:02:36.560Z,0.77
2022-08-05T19:07:45.337Z,0.60
2022-08-05T19:12:48.636Z,0.75
2022-08-05T19:17:59.172Z,0.50
2022-08-05T19:24:03.604Z,0.93
2022-08-05T19:28:35.012Z,0.68
2022-08-05T19:33:38.033Z,1.05
2022-08-05T19:38:43.668Z,0.80
2022-08-05T19:44:05.507Z,0.70
2022-08-05T19:49:07.707Z,0.80
2022-08-05T19:54:21.739Z,1.38
2022-08-05T19:59:54.711Z,0.80
2022-08-05T20:04:55.611Z,0.88
2022-08-05T20:10:00.890Z,0.73
2022-08-05T20:15:02.422Z,0.60
2022-08-05T20:20:09.443Z,0.80
2022-08-05T20:25:12.613Z,0.80
2022-08-05T20:30:14.479Z,0.60
2022-08-05T20:35:23.987Z,0.88
2022-08-05T20:40:32.797Z,0.80
2022-08-05T20:45:56.344Z,1.10
2022-08-05T20:51:00.411Z,1.53
2022-08-05T21:01:15.636Z,0.80
2022-08-05T21:06:54.733Z,0.90
2022-08-05T21:12:09.558Z,0.80
2022-08-05T21:17:40.790Z,1.88
2022-08-05T21:22:44.957Z,0.80
2022-08-05T21:27:48.024Z,1.00
2022-08-05T21:32:54.501Z,0.90
2022-08-05T21:37:56.279Z,1.00
2022-08-05T21:43:05.841Z,0.88
2022-08-05T21:48:25.208Z,1.03
2022-08-05T21:53:28.059Z,1.02
2022-08-05T21:58:31.907Z,0.90
2022-08-05T22:03:51.922Z,0.75
2022-08-05T22:08:57.775Z,1.20
2022-08-05T22:14:37.281Z,0.80
2022-08-05T22:20:00.541Z,0.88
2022-08-05T22:25:31.215Z,1.02
2022-08-05T22:30:55.784Z,1.00
2022-08-05T22:36:07.960Z,0.90
2022-08-05T22:46:47.462Z,1.63
2022-08-05T22:52:04.446Z,1.02
2022-08-05T22:57:09.593Z,0.93
2022-08-05T23:02:13.578Z,0.90
2022-08-05T23:07:18.928Z,1.02
2022-08-05T23:12:28.662Z,1.20
2022-08-05T23:17:34.466Z,1.10
2022-08-05T23:22:39.584Z,1.33
2022-08-05T23:27:57.471Z,1.55
2022-08-05T23:32:59.779Z,1.10
2022-08-05T23:38:01.945Z,1.48
2022-08-05T23:43:24.388Z,1.40
2022-08-05T23:48:26.352Z,1.30
2022-08-05T23:53:46.545Z,1.70
2022-08-05T23:58:48.840Z,1.50
